メインページ
METAR-TAF:

METAR-TAF

空港 :

レイキャヴィーク, アイスランド

レイキャヴィーク空港

緯度: 64-08N, 経度: 021-54W, 海抜: 54m

現時点の気象観測

当レポートは20分前の12:00(UTC)に作成
西/北西の風 8kt
気温 8°C
湿度 81%
気圧 1009 hPa
視程10km以上
高度3300ftの雲は散在している
高度5500ftの千切れ雲あり

METAR: BIRK 201200Z 29008KT 9999 SCT033 BKN055 08/05 Q1009

時間: 12:20 (12:20 UTC)

予報

当レポートは1時間44分前の10:36(UTC)に作成
予報は20日の 12時(UTC)から 21日の 12時(UTC)まで有効
北西の風 5kt
視程10km以上
高度2000ftの雲は散在している
高度5000ftの千切れ雲あり
確率 40% :
20日の 12時(UTC)から 20日の 21時(UTC)まで一時的に
高度1500ftの千切れ雲あり
小雨
21日の 03時(UTC)から 21日の 06時(UTC)まで徐々に
の風 10kt

TAF: BIRK 201036Z 2012/2112 31005KT 9999 SCT020 BKN050 TX10/2012Z TN03/2105Z PROB40 TEMPO 2012/2021 -RA BKN015 BECMG 2103/2106 09010KT

4,000以上の空港の気象観測と天気予報(METAR報とTAF報)

利用可能な観測所は地図上に黄色い丸と赤い丸で示す。

丸の上にカーソルを重ねると観測所名を参照できる。

次にクリックすると気象観測と天気予報を参照できる。

マップの切り替え:黒色「×」印の緑ボタンをクリックして拡大、「-」印の緑ボタンをクリックして縮小、緑色の三角印をクリックして隣りの地図に切り替え


METAR-TAF: